Time;durP1;ratioP1;P1;durP2;ratioP2;P2;SDS_P1;SDS_P2;PMS_P1;PMS_P2;Temp;Humidity;BMP_temperature;BMP_pressure;BME280_temperature;BME280_humidity;BME280_pressure;Samples;Min_cycle;Max_cycle;Signal;HPM_P1;HPM_P2
2022/02/21 00:01:57;;;;;;;26.70;5.00;;;7.40;99.90;;;;;;5083336;27;37062;-77
2022/02/21 00:04:23;;;;;;;17.57;2.90;;;7.30;99.90;;;;;;5103474;27;38585;-79
2022/02/21 00:06:49;;;;;;;16.93;3.07;;;7.30;99.90;;;;;;5099433;27;38944;-79
2022/02/21 00:09:15;;;;;;;16.73;3.23;;;7.20;99.90;;;;;;5101533;27;38653;-78
2022/02/21 00:11:42;;;;;;;16.60;3.33;;;7.20;99.90;;;;;;5087394;27;36812;-78
2022/02/21 00:14:09;;;;;;;21.10;3.93;;;7.10;99.90;;;;;;5085054;27;39179;-79
2022/02/21 00:16:35;;;;;;;24.53;4.30;;;7.10;99.90;;;;;;5101096;27;38493;-78
2022/02/21 00:19:01;;;;;;;20.43;3.13;;;7.10;99.90;;;;;;5099940;27;37627;-78
2022/02/21 00:21:29;;;;;;;18.53;2.87;;;7.20;99.90;;;;;;5099297;27;40336;-78
2022/02/21 00:23:56;;;;;;;18.23;2.93;;;7.20;99.90;;;;;;5101699;27;38814;-77
2022/02/21 00:26:22;;;;;;;16.20;2.77;;;7.30;99.90;;;;;;5093475;27;36000;-77
2022/02/21 00:28:49;;;;;;;20.37;3.00;;;7.30;99.90;;;;;;5099008;27;38130;-78
2022/02/21 00:31:15;;;;;;;17.47;3.00;;;7.30;99.90;;;;;;5081758;27;38526;-78
2022/02/21 00:33:42;;;;;;;22.93;3.33;;;7.30;99.90;;;;;;5071608;28;39496;-80
2022/02/21 00:36:08;;;;;;;20.77;3.53;;;7.30;99.90;;;;;;5086880;27;38575;-79
2022/02/21 00:38:34;;;;;;;16.80;2.53;;;7.30;99.90;;;;;;5106924;27;39174;-78
2022/02/21 00:41:01;;;;;;;18.83;3.70;;;7.20;99.90;;;;;;5096680;27;37290;-78
2022/02/21 00:43:27;;;;;;;15.93;3.10;;;7.20;99.90;;;;;;5081083;27;47335;-78
2022/02/21 00:45:54;;;;;;;20.50;4.90;;;7.10;99.90;;;;;;5077751;27;40157;-78
2022/02/21 00:48:20;;;;;;;16.17;3.87;;;7.20;99.90;;;;;;5071298;27;38504;-81
2022/02/21 00:50:46;;;;;;;20.57;2.93;;;7.20;99.90;;;;;;5097975;27;37825;-75
2022/02/21 00:53:13;;;;;;;22.53;4.07;;;7.20;99.90;;;;;;5096575;27;38583;-77
2022/02/21 00:55:39;;;;;;;24.00;3.50;;;7.20;99.90;;;;;;5100919;27;38402;-80
2022/02/21 00:58:06;;;;;;;23.17;3.90;;;7.20;99.90;;;;;;5098603;27;38276;-79
2022/02/21 01:00:33;;;;;;;25.20;3.73;;;7.30;99.90;;;;;;5080243;27;38981;-77
2022/02/21 01:03:00;;;;;;;19.43;4.20;;;7.30;99.90;;;;;;5097717;27;37985;-78
2022/02/21 01:05:26;;;;;;;20.40;3.77;;;7.30;99.90;;;;;;5082637;27;39468;-76
2022/02/21 01:07:52;;;;;;;18.73;3.03;;;7.20;99.90;;;;;;5085835;27;38595;-78
2022/02/21 01:10:18;;;;;;;18.97;2.37;;;7.10;99.90;;;;;;5086892;28;39371;-78
2022/02/21 01:12:44;;;;;;;17.50;2.90;;;7.00;99.90;;;;;;5082445;27;39955;-76
2022/02/21 01:15:14;;;;;;;28.07;3.60;;;6.90;99.90;;;;;;5080240;27;38757;-78
2022/02/21 01:17:44;;;;;;;18.67;3.57;;;6.90;99.90;;;;;;5077001;27;38502;-77
2022/02/21 01:20:12;;;;;;;19.27;3.30;;;6.80;99.90;;;;;;5116407;27;37652;-77
2022/02/21 01:22:39;;;;;;;19.80;3.37;;;6.80;99.90;;;;;;5097941;27;40304;-77
2022/02/21 01:25:06;;;;;;;18.03;3.20;;;6.80;99.90;;;;;;5096337;27;39196;-77
2022/02/21 01:27:33;;;;;;;21.73;2.90;;;6.80;99.90;;;;;;5097124;27;38182;-77
2022/02/21 01:29:59;;;;;;;21.83;3.73;;;6.90;99.90;;;;;;5072539;27;37404;-77
2022/02/21 01:32:25;;;;;;;21.70;3.83;;;6.80;99.90;;;;;;5090162;27;38939;-77
2022/02/21 01:34:51;;;;;;;12.90;3.57;;;6.90;99.90;;;;;;5100365;27;39117;-78
2022/02/21 01:37:17;;;;;;;19.83;2.83;;;6.90;99.90;;;;;;5103486;27;38006;-77
2022/02/21 01:39:43;;;;;;;15.33;2.63;;;6.90;99.90;;;;;;5107901;27;38171;-77
2022/02/21 01:42:10;;;;;;;17.00;2.10;;;7.00;99.90;;;;;;5102689;27;38654;-78
2022/02/21 01:44:36;;;;;;;13.00;2.73;;;6.90;99.90;;;;;;5085417;27;39969;-78
2022/02/21 01:47:04;;;;;;;9.50;2.50;;;6.90;99.90;;;;;;5105313;27;39031;-77
2022/02/21 01:49:30;;;;;;;19.80;3.00;;;6.90;99.90;;;;;;5086769;27;38559;-77
2022/02/21 01:51:57;;;;;;;13.80;2.67;;;6.90;99.90;;;;;;5089240;27;37377;-78
2022/02/21 01:54:23;;;;;;;13.97;3.27;;;6.90;99.90;;;;;;5099014;27;39170;-77
2022/02/21 01:56:49;;;;;;;16.67;2.60;;;6.90;99.90;;;;;;5097360;27;38073;-77
2022/02/21 01:59:15;;;;;;;20.13;2.60;;;6.90;99.90;;;;;;5100004;27;37337;-78
2022/02/21 02:01:41;;;;;;;14.57;2.63;;;6.90;99.90;;;;;;5097801;27;38544;-78
2022/02/21 02:04:09;;;;;;;20.57;2.93;;;6.90;99.90;;;;;;5100414;27;38911;-77
2022/02/21 02:06:36;;;;;;;21.07;2.70;;;6.90;99.90;;;;;;5103361;27;38100;-77
2022/02/21 02:09:03;;;;;;;18.97;3.07;;;6.90;99.90;;;;;;5101462;27;37966;-77
2022/02/21 02:11:32;;;;;;;22.80;3.70;;;6.90;99.90;;;;;;5100055;27;39106;-77
2022/02/21 02:13:58;;;;;;;24.63;3.77;;;7.00;99.90;;;;;;5099773;27;38449;-77
2022/02/21 02:16:24;;;;;;;17.77;3.23;;;7.00;99.90;;;;;;5093284;27;37902;-77
2022/02/21 02:18:50;;;;;;;14.97;3.47;;;7.00;99.90;;;;;;5083840;27;36034;-77
2022/02/21 02:21:26;;;;;;;17.67;4.20;;;7.00;99.90;;;;;;5101628;27;39473;-78
2022/02/21 02:23:53;;;;;;;19.63;3.50;;;6.90;99.90;;;;;;5084374;27;39604;-77
2022/02/21 02:26:21;;;;;;;12.00;2.73;;;7.00;99.90;;;;;;5081453;27;39527;-79
2022/02/21 02:28:51;;;;;;;20.13;2.70;;;6.90;99.90;;;;;;5102812;27;37107;-78
2022/02/21 02:31:17;;;;;;;20.87;2.60;;;7.00;99.90;;;;;;5092998;27;38546;-77
2022/02/21 02:33:44;;;;;;;18.77;4.17;;;7.00;99.90;;;;;;5078892;27;39515;-76
2022/02/21 02:36:10;;;;;;;21.87;3.43;;;7.00;99.90;;;;;;5102601;27;39241;-77
2022/02/21 02:38:39;;;;;;;21.20;3.43;;;7.00;99.90;;;;;;5099481;27;36957;-75
2022/02/21 02:41:07;;;;;;;23.47;3.50;;;6.90;99.90;;;;;;5085941;27;40220;-77
2022/02/21 02:43:35;;;;;;;25.43;3.97;;;6.90;99.90;;;;;;5086636;27;39788;-80
2022/02/21 02:46:01;;;;;;;19.03;3.20;;;6.90;99.90;;;;;;5098799;27;37813;-77
2022/02/21 02:48:27;;;;;;;22.03;3.70;;;6.90;99.90;;;;;;5099650;27;47674;-76
2022/02/21 02:50:53;;;;;;;20.20;3.70;;;6.90;99.90;;;;;;5081607;27;39202;-78
2022/02/21 02:53:19;;;;;;;18.13;3.47;;;6.80;99.90;;;;;;5104395;27;38461;-77
2022/02/21 02:55:45;;;;;;;23.30;3.50;;;6.90;99.90;;;;;;5099849;27;38027;-77
2022/02/21 02:58:11;;;;;;;29.20;3.67;;;6.90;99.90;;;;;;5088761;27;37069;-77
2022/02/21 03:00:37;;;;;;;23.63;4.37;;;6.90;99.90;;;;;;5085954;28;39646;-77
2022/02/21 03:03:04;;;;;;;22.63;3.87;;;6.90;99.90;;;;;;5079058;27;37680;-76
2022/02/21 03:05:31;;;;;;;22.37;3.80;;;6.90;99.90;;;;;;5077200;27;38804;-77
2022/02/21 03:07:57;;;;;;;25.33;4.10;;;6.80;99.90;;;;;;5090624;27;37342;-77
2022/02/21 03:10:23;;;;;;;19.87;3.80;;;6.90;99.90;;;;;;5082647;28;39089;-77
2022/02/21 03:12:49;;;;;;;27.53;4.17;;;6.80;99.90;;;;;;5082599;27;38704;-78
2022/02/21 03:15:15;;;;;;;16.73;3.53;;;6.80;99.90;;;;;;5092523;28;36426;-77
2022/02/21 03:17:41;;;;;;;18.77;3.27;;;6.90;99.90;;;;;;5095224;27;37051;-79
2022/02/21 03:20:09;;;;;;;26.67;3.77;;;6.90;99.90;;;;;;5083968;27;37609;-77
2022/02/21 03:22:35;;;;;;;20.87;3.77;;;6.90;99.90;;;;;;5095490;27;39103;-79
2022/02/21 03:25:01;;;;;;;16.07;3.27;;;6.90;99.90;;;;;;5088285;27;38158;-79
2022/02/21 03:27:27;;;;;;;19.37;3.17;;;6.90;99.90;;;;;;5095718;27;49077;-76
2022/02/21 03:29:53;;;;;;;17.47;2.93;;;6.90;99.90;;;;;;5096122;27;42374;-77
2022/02/21 03:32:19;;;;;;;21.23;3.50;;;6.80;99.90;;;;;;5081212;27;40043;-78
2022/02/21 03:34:45;;;;;;;21.53;3.67;;;6.80;99.90;;;;;;5079640;27;38694;-77
2022/02/21 03:37:14;;;;;;;22.20;3.33;;;6.80;99.90;;;;;;5096311;27;36118;-77
2022/02/21 03:39:40;;;;;;;21.10;3.33;;;6.80;99.90;;;;;;5093318;27;39821;-77
2022/02/21 03:42:06;;;;;;;18.47;3.47;;;6.80;99.90;;;;;;5076245;27;39781;-78
2022/02/21 03:44:32;;;;;;;19.00;3.10;;;6.70;99.90;;;;;;5092147;27;38814;-77
2022/02/21 03:46:58;;;;;;;19.33;3.70;;;6.70;99.90;;;;;;5076802;27;37296;-77
2022/02/21 03:49:24;;;;;;;19.27;3.13;;;6.70;99.90;;;;;;5088503;27;38593;-77
2022/02/21 03:51:50;;;;;;;13.17;3.03;;;6.60;99.90;;;;;;5097791;27;38647;-77
2022/02/21 03:54:16;;;;;;;17.37;2.60;;;6.60;99.90;;;;;;5098497;27;38336;-77
2022/02/21 03:56:42;;;;;;;18.87;3.00;;;6.60;99.90;;;;;;5080047;27;38136;-76
2022/02/21 03:59:08;;;;;;;22.80;3.23;;;6.60;99.90;;;;;;5073384;28;39635;-77
2022/02/21 04:01:34;;;;;;;16.13;3.27;;;6.60;99.90;;;;;;5096250;27;38415;-74
2022/02/21 04:04:01;;;;;;;22.20;3.27;;;6.50;99.90;;;;;;5093480;27;38361;-75
2022/02/21 04:06:27;;;;;;;17.57;3.07;;;6.40;99.90;;;;;;5078908;27;38997;-76
2022/02/21 04:08:53;;;;;;;19.90;2.83;;;6.40;99.90;;;;;;5097808;27;38654;-75
2022/02/21 04:11:19;;;;;;;20.87;3.37;;;6.30;99.90;;;;;;5097282;27;38551;-77
2022/02/21 04:13:45;;;;;;;16.60;2.60;;;6.30;99.90;;;;;;5084275;27;38155;-76
2022/02/21 04:16:11;;;;;;;16.57;3.77;;;6.30;99.90;;;;;;5101534;27;38173;-76
2022/02/21 04:18:37;;;;;;;22.67;3.50;;;6.30;99.90;;;;;;5101182;27;39456;-75
2022/02/21 04:21:03;;;;;;;24.17;3.30;;;6.30;99.90;;;;;;5101102;27;38219;-74
2022/02/21 04:23:29;;;;;;;17.53;3.80;;;6.30;99.90;;;;;;5099322;27;38527;-74
2022/02/21 04:25:55;;;;;;;22.33;3.60;;;6.30;99.90;;;;;;5097923;27;38686;-75
2022/02/21 04:28:22;;;;;;;25.97;3.83;;;6.30;99.90;;;;;;5111113;27;38620;-74
2022/02/21 04:30:48;;;;;;;18.80;3.27;;;6.30;99.90;;;;;;5106799;27;38994;-75
2022/02/21 04:33:14;;;;;;;14.93;3.20;;;6.30;99.90;;;;;;5106368;27;37994;-75
2022/02/21 04:35:40;;;;;;;20.73;3.70;;;6.30;99.90;;;;;;5113903;27;37124;-75
2022/02/21 04:38:06;;;;;;;21.37;3.73;;;6.20;99.90;;;;;;5089560;27;37534;-74
2022/02/21 04:40:32;;;;;;;22.60;3.77;;;6.20;99.90;;;;;;5079064;27;37734;-75
2022/02/21 04:42:58;;;;;;;17.83;3.07;;;6.20;99.90;;;;;;5112933;27;38791;-75
2022/02/21 04:45:25;;;;;;;20.40;2.90;;;6.20;99.90;;;;;;5096979;27;38136;-75
2022/02/21 04:47:51;;;;;;;22.67;4.30;;;6.30;99.90;;;;;;5105272;27;41524;-75
2022/02/21 04:50:18;;;;;;;17.87;2.53;;;6.40;99.90;;;;;;5107317;27;38476;-75
2022/02/21 04:52:44;;;;;;;20.70;3.57;;;6.40;99.90;;;;;;5115897;27;38472;-75
2022/02/21 04:55:13;;;;;;;22.73;4.07;;;6.40;99.90;;;;;;5080422;27;38988;-76
2022/02/21 04:57:40;;;;;;;20.90;4.50;;;6.50;99.90;;;;;;5084592;27;39210;-75
2022/02/21 05:00:09;;;;;;;20.17;3.30;;;6.40;99.90;;;;;;5078180;27;39564;-75
2022/02/21 05:02:35;;;;;;;24.83;4.10;;;6.40;99.90;;;;;;5089008;27;38382;-74
2022/02/21 05:05:01;;;;;;;20.73;4.10;;;6.30;99.90;;;;;;5088682;27;36836;-74
2022/02/21 05:07:27;;;;;;;19.63;3.10;;;6.30;99.90;;;;;;5095813;27;38652;-75
2022/02/21 05:09:53;;;;;;;14.87;3.23;;;6.20;99.90;;;;;;5113245;27;38586;-74
2022/02/21 05:12:19;;;;;;;18.63;3.27;;;6.20;99.90;;;;;;5087720;27;39007;-75
2022/02/21 05:14:46;;;;;;;24.60;3.47;;;6.20;99.90;;;;;;5086927;27;37084;-75
2022/02/21 05:17:12;;;;;;;20.00;3.30;;;6.20;99.90;;;;;;5109054;27;38932;-74
2022/02/21 05:19:38;;;;;;;18.07;2.90;;;6.20;99.90;;;;;;5099845;27;39295;-78
2022/02/21 05:22:04;;;;;;;18.30;3.17;;;6.20;99.90;;;;;;5082793;27;36129;-74
2022/02/21 05:24:30;;;;;;;22.03;4.23;;;6.30;99.90;;;;;;5108230;27;37729;-75
2022/02/21 05:26:56;;;;;;;20.70;3.47;;;6.30;99.90;;;;;;5102880;27;39511;-76
2022/02/21 05:29:22;;;;;;;18.50;3.53;;;6.20;99.90;;;;;;5078333;27;38298;-75
2022/02/21 05:31:49;;;;;;;15.60;2.63;;;6.20;99.90;;;;;;5097624;27;37018;-75
2022/02/21 05:34:15;;;;;;;13.90;2.93;;;6.20;99.90;;;;;;5106341;27;37240;-75
2022/02/21 05:36:42;;;;;;;21.10;3.00;;;6.20;99.90;;;;;;5105023;27;37423;-74
2022/02/21 05:39:08;;;;;;;29.63;3.97;;;6.20;99.90;;;;;;5102865;27;38612;-76
2022/02/21 05:41:34;;;;;;;18.20;3.50;;;6.10;99.90;;;;;;5102822;27;38134;-75
2022/02/21 05:44:00;;;;;;;16.80;2.90;;;6.10;99.90;;;;;;5109310;27;37263;-74
2022/02/21 05:46:27;;;;;;;24.13;3.07;;;6.10;99.90;;;;;;5090436;27;37864;-74
2022/02/21 05:48:53;;;;;;;19.87;2.80;;;6.20;99.90;;;;;;5073563;28;36780;-74
2022/02/21 05:51:19;;;;;;;16.33;2.90;;;6.10;99.90;;;;;;5113798;27;38122;-75
2022/02/21 05:53:47;;;;;;;17.07;3.00;;;6.00;99.90;;;;;;5100290;27;36944;-74
2022/02/21 05:56:14;;;;;;;16.57;3.40;;;6.00;99.90;;;;;;5085376;27;39298;-74
2022/02/21 05:58:40;;;;;;;19.43;3.60;;;6.00;99.90;;;;;;5098575;28;39251;-75
2022/02/21 06:01:07;;;;;;;19.43;3.73;;;6.00;99.90;;;;;;5086529;27;38604;-74
2022/02/21 06:03:33;;;;;;;24.23;4.23;;;6.00;99.90;;;;;;5102187;27;38836;-74
2022/02/21 06:05:59;;;;;;;17.83;3.33;;;6.10;99.90;;;;;;5082591;28;38645;-75
2022/02/21 06:08:25;;;;;;;19.57;3.23;;;6.00;99.90;;;;;;5085262;27;38714;-75
2022/02/21 06:10:51;;;;;;;21.57;3.33;;;6.00;99.90;;;;;;5086307;27;38806;-75
2022/02/21 06:13:17;;;;;;;18.10;3.17;;;6.00;99.90;;;;;;5084502;27;38422;-75
2022/02/21 06:15:43;;;;;;;23.63;4.47;;;5.90;99.90;;;;;;5075617;27;40353;-74
2022/02/21 06:18:09;;;;;;;22.43;3.63;;;6.00;99.90;;;;;;5100804;27;38507;-74
2022/02/21 06:20:36;;;;;;;25.10;3.83;;;6.00;99.90;;;;;;5099446;27;38064;-75
2022/02/21 06:23:02;;;;;;;16.03;3.43;;;6.00;99.90;;;;;;5084173;27;36154;-73
2022/02/21 06:25:28;;;;;;;24.77;3.70;;;6.00;99.90;;;;;;5083502;27;39546;-74
2022/02/21 06:27:54;;;;;;;15.63;3.07;;;6.00;99.90;;;;;;5100585;27;38942;-75
2022/02/21 06:30:20;;;;;;;20.33;5.93;;;6.00;99.90;;;;;;5099067;27;37969;-74
2022/02/21 06:32:46;;;;;;;15.37;3.43;;;6.00;99.90;;;;;;5111475;27;37017;-75
2022/02/21 06:35:14;;;;;;;19.03;3.30;;;5.90;99.90;;;;;;5079299;27;39903;-74
2022/02/21 06:37:46;;;;;;;17.00;3.40;;;6.00;99.90;;;;;;5097718;27;38431;-75
2022/02/21 06:40:13;;;;;;;20.08;3.75;;;6.00;99.90;;;;;;5084608;27;38989;-75
2022/02/21 06:42:40;;;;;;;21.83;3.13;;;6.00;99.90;;;;;;5101425;27;38269;-74
2022/02/21 06:45:07;;;;;;;18.23;4.37;;;6.00;99.90;;;;;;5105870;27;38816;-76
2022/02/21 06:47:33;;;;;;;21.27;3.97;;;6.00;99.90;;;;;;5082351;27;41404;-76
2022/02/21 06:50:01;;;;;;;25.73;3.10;;;6.10;99.90;;;;;;5102568;27;38200;-76
2022/02/21 06:52:28;;;;;;;27.10;3.90;;;6.10;99.90;;;;;;5085701;27;46400;-75
2022/02/21 06:54:54;;;;;;;22.30;3.73;;;6.20;99.90;;;;;;5088378;27;37880;-75
2022/02/21 06:57:20;;;;;;;18.13;3.20;;;6.30;99.90;;;;;;5100909;27;38088;-76
2022/02/21 06:59:46;;;;;;;22.10;3.30;;;6.30;99.90;;;;;;5083281;27;37074;-77
2022/02/21 07:02:13;;;;;;;24.00;4.17;;;6.30;99.90;;;;;;5084867;27;36545;-77
2022/02/21 07:04:39;;;;;;;25.90;4.67;;;6.30;99.90;;;;;;5086659;27;38199;-77
2022/02/21 07:07:05;;;;;;;18.67;3.13;;;6.40;99.90;;;;;;5105294;27;39342;-75
2022/02/21 07:09:31;;;;;;;25.87;3.90;;;6.40;99.90;;;;;;5102036;27;39060;-76
2022/02/21 07:11:57;;;;;;;25.60;3.60;;;6.30;99.90;;;;;;5108868;27;37185;-77
2022/02/21 07:14:23;;;;;;;19.33;3.30;;;6.40;99.90;;;;;;5103232;27;37803;-76
2022/02/21 07:16:50;;;;;;;18.60;3.57;;;6.50;99.90;;;;;;5098201;27;38952;-77
2022/02/21 07:19:16;;;;;;;25.37;3.63;;;6.50;99.90;;;;;;5088402;27;38208;-77
2022/02/21 07:21:43;;;;;;;27.27;3.30;;;6.60;99.90;;;;;;5101559;27;37651;-77
2022/02/21 07:24:11;;;;;;;22.23;3.30;;;6.60;99.90;;;;;;5097662;27;38918;-79
2022/02/21 07:26:38;;;;;;;24.67;3.63;;;6.70;99.90;;;;;;5085202;27;38493;-77
2022/02/21 07:29:06;;;;;;;14.10;3.00;;;6.70;99.90;;;;;;5082966;27;36955;-76
2022/02/21 07:31:32;;;;;;;17.80;2.87;;;6.70;99.90;;;;;;5096979;27;36477;-76
2022/02/21 07:34:02;;;;;;;23.70;3.23;;;6.70;99.90;;;;;;5108766;27;39431;-77
2022/02/21 07:36:29;;;;;;;20.33;3.53;;;6.80;99.90;;;;;;5083857;27;47428;-77
2022/02/21 07:38:56;;;;;;;19.27;3.43;;;6.80;99.90;;;;;;5096312;27;38367;-77
2022/02/21 07:41:22;;;;;;;13.80;2.90;;;6.80;99.90;;;;;;5103983;27;37184;-75
2022/02/21 07:43:48;;;;;;;20.77;3.20;;;6.80;99.90;;;;;;5088600;27;38892;-78
2022/02/21 07:46:14;;;;;;;14.87;3.00;;;6.80;99.90;;;;;;5103519;27;38309;-77
2022/02/21 07:48:40;;;;;;;15.97;3.10;;;6.70;99.90;;;;;;5091956;27;37859;-78
2022/02/21 07:51:06;;;;;;;21.23;3.97;;;6.70;99.90;;;;;;5105533;27;37076;-77
2022/02/21 07:53:32;;;;;;;22.70;3.30;;;6.50;99.90;;;;;;5098710;27;38637;-76
2022/02/21 07:55:58;;;;;;;18.80;4.00;;;6.50;99.90;;;;;;5083771;27;37276;-76
2022/02/21 07:58:25;;;;;;;26.03;4.37;;;6.50;99.90;;;;;;5102328;27;38388;-76
2022/02/21 08:00:51;;;;;;;25.53;4.87;;;6.50;99.90;;;;;;5100256;27;36918;-76
2022/02/21 08:03:17;;;;;;;33.27;4.90;;;6.40;99.90;;;;;;5090574;27;38618;-76
2022/02/21 08:05:44;;;;;;;21.37;3.73;;;6.30;99.90;;;;;;5091772;27;36972;-75
2022/02/21 08:08:10;;;;;;;33.53;5.90;;;6.20;99.90;;;;;;5113521;27;38501;-76
2022/02/21 08:10:36;;;;;;;28.67;3.63;;;6.10;99.90;;;;;;5101710;27;37250;-76
2022/02/21 08:13:02;;;;;;;22.47;4.67;;;6.00;99.90;;;;;;5093088;27;37676;-76
2022/02/21 08:15:29;;;;;;;20.90;3.80;;;5.90;99.90;;;;;;5093434;27;37445;-77
2022/02/21 08:17:55;;;;;;;23.70;4.47;;;5.80;99.90;;;;;;5112727;27;38240;-77
2022/02/21 08:20:23;;;;;;;29.53;4.57;;;5.80;99.90;;;;;;5098958;27;36238;-77
2022/02/21 08:22:52;;;;;;;34.50;4.93;;;5.70;99.90;;;;;;5107660;27;40436;-77
2022/02/21 08:25:18;;;;;;;32.00;4.90;;;5.70;99.90;;;;;;5110159;27;38979;-76
2022/02/21 08:27:45;;;;;;;30.03;4.63;;;5.70;99.90;;;;;;5084739;27;38009;-77
2022/02/21 08:30:20;;;;;;;31.37;4.43;;;5.70;99.90;;;;;;5111022;27;35563;-76
2022/02/21 08:32:46;;;;;;;25.57;4.23;;;5.80;99.90;;;;;;5113434;27;41510;-77
2022/02/21 08:35:13;;;;;;;28.37;4.90;;;5.70;99.90;;;;;;5114699;27;39448;-76
2022/02/21 08:37:40;;;;;;;29.40;5.47;;;5.70;99.90;;;;;;5118144;27;38233;-76
2022/02/21 08:40:09;;;;;;;32.67;5.63;;;5.80;99.90;;;;;;5102849;27;37991;-75
2022/02/21 08:42:36;;;;;;;31.13;3.90;;;5.70;99.90;;;;;;5107586;27;38149;-75
2022/02/21 08:45:07;;;;;;;29.50;4.30;;;5.70;99.90;;;;;;5098598;27;38326;-76
2022/02/21 08:47:33;;;;;;;33.00;6.90;;;5.60;99.90;;;;;;5090058;27;40934;-76
2022/02/21 08:50:00;;;;;;;31.03;4.33;;;5.60;99.90;;;;;;5107675;27;38413;-76
2022/02/21 08:52:26;;;;;;;29.17;4.97;;;5.70;99.90;;;;;;5116327;27;40035;-78
2022/02/21 08:54:52;;;;;;;39.23;5.60;;;5.70;99.90;;;;;;5093339;27;37293;-79
2022/02/21 08:57:18;;;;;;;31.60;4.90;;;5.70;99.90;;;;;;5108977;27;37946;-78
2022/02/21 08:59:44;;;;;;;31.50;4.80;;;5.80;99.90;;;;;;5096050;27;34993;-80
2022/02/21 09:02:11;;;;;;;40.60;5.70;;;5.80;99.90;;;;;;5109287;27;38823;-80
2022/02/21 09:04:37;;;;;;;34.83;5.20;;;5.80;99.90;;;;;;5098634;27;37465;-80
2022/02/21 09:07:03;;;;;;;40.90;5.60;;;5.90;99.90;;;;;;5089390;27;37184;-79
2022/02/21 09:09:29;;;;;;;28.13;5.17;;;6.00;99.90;;;;;;5123020;27;37586;-80
2022/02/21 09:11:55;;;;;;;37.77;6.23;;;6.10;99.90;;;;;;5105362;27;39776;-78
2022/02/21 09:14:21;;;;;;;35.47;5.40;;;6.20;99.90;;;;;;5117479;27;38882;-79
2022/02/21 09:16:48;;;;;;;29.07;5.07;;;6.20;99.90;;;;;;5114679;27;38289;-80
2022/02/21 09:19:14;;;;;;;37.87;5.67;;;6.20;99.90;;;;;;5117438;27;37487;-80
2022/02/21 09:21:40;;;;;;;33.43;5.73;;;6.20;99.90;;;;;;5084421;27;37928;-79
2022/02/21 09:24:06;;;;;;;30.00;4.57;;;6.10;99.90;;;;;;5112496;27;39195;-79
2022/02/21 09:26:34;;;;;;;42.83;6.87;;;6.20;99.90;;;;;;5114108;27;36129;-80
2022/02/21 09:29:00;;;;;;;27.93;5.83;;;6.20;99.90;;;;;;5093989;27;36290;-79
2022/02/21 09:31:26;;;;;;;44.07;6.70;;;6.20;99.90;;;;;;5094084;27;39315;-82
2022/02/21 09:33:53;;;;;;;44.80;5.67;;;6.10;99.90;;;;;;5114343;27;37912;-79
2022/02/21 09:36:19;;;;;;;31.70;5.53;;;6.10;99.90;;;;;;5113366;27;37817;-79
2022/02/21 09:38:45;;;;;;;42.00;6.87;;;6.10;99.90;;;;;;5097659;27;37284;-79
2022/02/21 09:41:11;;;;;;;43.87;6.73;;;6.10;99.90;;;;;;5111376;27;38505;-81
2022/02/21 09:43:38;;;;;;;42.43;6.17;;;6.20;99.90;;;;;;5124153;27;38388;-80
2022/02/21 09:46:07;;;;;;;36.73;7.27;;;6.30;99.90;;;;;;5100271;27;39150;-81
2022/02/21 09:48:36;;;;;;;40.80;6.77;;;6.30;99.90;;;;;;5094494;27;36949;-78
2022/02/21 09:51:04;;;;;;;38.73;5.60;;;6.30;99.90;;;;;;5095297;27;39069;-79
2022/02/21 09:53:36;;;;;;;40.03;5.87;;;6.40;99.90;;;;;;5095547;27;38490;-80
2022/02/21 09:56:04;;;;;;;39.77;6.00;;;6.30;99.90;;;;;;5127823;27;38082;-79
2022/02/21 09:58:31;;;;;;;39.13;5.10;;;6.40;99.90;;;;;;5112427;27;38712;-79
2022/02/21 10:00:58;;;;;;;39.83;6.93;;;6.40;99.90;;;;;;5119390;27;38588;-78
2022/02/21 10:03:36;;;;;;;42.97;6.40;;;6.40;99.90;;;;;;5105840;27;38418;-82
2022/02/21 10:06:20;;;;;;;40.77;6.37;;;6.50;99.90;;;;;;5091623;28;39676;-80
2022/02/21 10:08:56;;;;;;;50.30;7.40;;;6.50;99.90;;;;;;5088010;27;37332;-81
2022/02/21 10:11:25;;;;;;;56.57;7.83;;;6.70;99.90;;;;;;5106185;27;39080;-80
2022/02/21 10:14:04;;;;;;;50.40;7.50;;;6.80;99.90;;;;;;5110751;27;38677;-80
2022/02/21 10:16:48;;;;;;;48.30;8.90;;;6.90;99.90;;;;;;5094836;27;47250;-79
2022/02/21 10:19:20;;;;;;;47.30;8.43;;;7.00;99.90;;;;;;5101319;27;37724;-80
2022/02/21 10:21:49;;;;;;;53.50;9.40;;;7.00;99.90;;;;;;5112075;27;39521;-80
2022/02/21 10:24:15;;;;;;;46.03;7.77;;;7.00;99.90;;;;;;5070616;27;40255;-80
2022/02/21 10:26:42;;;;;;;43.40;6.10;;;7.10;99.90;;;;;;5093510;27;39584;-82
2022/02/21 10:29:10;;;;;;;49.00;7.97;;;7.10;99.90;;;;;;5108873;27;37061;-79
2022/02/21 10:31:36;;;;;;;38.40;5.83;;;7.10;99.90;;;;;;5107698;27;38748;-78
2022/02/21 10:34:06;;;;;;;38.57;6.87;;;7.20;99.90;;;;;;5088689;27;37843;-78
2022/02/21 10:36:43;;;;;;;45.77;6.30;;;7.20;99.90;;;;;;5113135;27;39055;-79
2022/02/21 10:39:15;;;;;;;51.40;6.97;;;7.20;99.90;;;;;;5088020;27;37255;-79
2022/02/21 10:41:50;;;;;;;56.42;7.03;;;7.20;99.90;;;;;;5092066;27;37467;-79
2022/02/21 10:44:28;;;;;;;38.50;6.23;;;7.20;99.90;;;;;;5115199;27;39522;-80
2022/02/21 10:47:00;;;;;;;47.93;6.80;;;7.20;99.90;;;;;;5111497;27;37756;-80
2022/02/21 10:49:27;;;;;;;46.10;7.50;;;7.20;99.90;;;;;;5102284;28;36943;-79
2022/02/21 10:51:57;;;;;;;36.90;6.63;;;7.30;99.90;;;;;;5098212;27;39784;-78
2022/02/21 10:54:37;;;;;;;45.53;6.57;;;7.30;99.90;;;;;;5083717;27;39149;-79
2022/02/21 10:57:14;;;;;;;35.53;6.30;;;7.40;99.90;;;;;;5097466;27;38943;-80
2022/02/21 10:59:41;;;;;;;37.80;7.47;;;7.70;99.90;;;;;;5100511;27;38349;-81
2022/02/21 11:02:10;;;;;;;39.47;6.87;;;7.80;99.90;;;;;;5114119;27;38923;-80
2022/02/21 11:04:38;;;;;;;40.57;6.50;;;7.90;99.90;;;;;;5111637;27;39315;-83
2022/02/21 11:07:05;;;;;;;27.60;5.33;;;8.00;99.90;;;;;;5113666;27;38550;-81
2022/02/21 11:09:32;;;;;;;38.53;6.03;;;8.00;99.90;;;;;;5124067;27;37565;-81
2022/02/21 11:12:01;;;;;;;38.40;6.27;;;8.10;99.90;;;;;;5113222;27;38881;-81
2022/02/21 11:14:29;;;;;;;30.80;5.77;;;8.10;99.90;;;;;;5112707;28;48617;-80
2022/02/21 11:16:58;;;;;;;30.53;6.90;;;8.10;99.90;;;;;;5111989;27;39123;-82
2022/02/21 11:19:25;;;;;;;39.13;6.40;;;8.10;99.90;;;;;;5094854;27;37444;-82
2022/02/21 11:21:52;;;;;;;28.83;5.00;;;8.10;99.90;;;;;;5092791;27;39412;-81
2022/02/21 11:24:22;;;;;;;41.13;5.53;;;8.20;99.90;;;;;;5109146;27;38139;-81
2022/02/21 11:27:02;;;;;;;30.93;5.40;;;8.30;99.90;;;;;;5096060;27;38998;-81
2022/02/21 11:29:44;;;;;;;39.43;6.23;;;8.30;99.90;;;;;;5087326;28;48138;-80
2022/02/21 11:32:20;;;;;;;39.30;6.57;;;8.40;99.90;;;;;;5087378;27;38038;-80
2022/02/21 11:34:48;;;;;;;38.60;5.83;;;8.40;99.90;;;;;;5103120;27;39359;-80
2022/02/21 11:37:25;;;;;;;29.83;5.50;;;8.50;99.90;;;;;;5093429;27;37137;-82
2022/02/21 11:39:58;;;;;;;32.90;5.33;;;8.60;99.90;;;;;;5098131;27;37660;-81
2022/02/21 11:42:29;;;;;;;37.33;5.13;;;8.70;99.90;;;;;;5100066;27;37788;-81
2022/02/21 11:44:58;;;;;;;27.27;5.33;;;8.80;99.90;;;;;;5134643;27;38788;-81
2022/02/21 11:47:39;;;;;;;38.37;7.03;;;8.90;99.90;;;;;;5098195;27;40359;-81
2022/02/21 11:50:17;;;;;;;34.23;5.93;;;8.90;99.90;;;;;;5099910;27;35026;-80
2022/02/21 11:52:50;;;;;;;32.23;5.03;;;9.00;99.90;;;;;;5095274;27;39562;-79
2022/02/21 11:55:40;;;;;;;41.87;6.37;;;9.10;99.90;;;;;;5112136;27;39109;-80
2022/02/21 11:58:15;;;;;;;32.43;5.17;;;9.10;99.90;;;;;;5085148;27;37452;-82
2022/02/21 12:00:45;;;;;;;44.73;6.30;;;9.10;99.90;;;;;;5091793;27;36249;-80
2022/02/21 12:03:26;;;;;;;46.43;6.40;;;9.00;99.90;;;;;;5108939;27;39836;-80
2022/02/21 12:05:59;;;;;;;37.57;6.37;;;9.10;99.90;;;;;;5087026;27;37476;-81
2022/02/21 12:08:30;;;;;;;30.88;4.72;;;9.10;99.90;;;;;;5117567;27;37114;-81
2022/02/21 12:11:03;;;;;;;34.93;5.73;;;9.10;99.90;;;;;;5090460;27;36491;-81
2022/02/21 12:13:32;;;;;;;33.42;5.45;;;9.10;99.90;;;;;;5107545;27;47644;-81
2022/02/21 12:16:06;;;;;;;35.47;5.63;;;9.00;99.90;;;;;;5113880;27;38766;-82
2022/02/21 12:18:42;;;;;;;35.93;6.17;;;8.90;99.90;;;;;;5108904;27;47855;-81
2022/02/21 12:21:24;;;;;;;38.73;5.33;;;8.90;99.90;;;;;;5112190;27;37439;-80
2022/02/21 12:24:00;;;;;;;33.55;6.43;;;8.80;99.90;;;;;;5092890;28;38194;-81
2022/02/21 12:26:27;;;;;;;32.33;5.57;;;8.90;99.90;;;;;;5114995;27;39348;-80
2022/02/21 12:29:16;;;;;;;35.20;6.33;;;9.10;99.90;;;;;;5100785;28;38271;-80
2022/02/21 12:32:06;;;;;;;26.20;4.87;;;9.30;99.90;;;;;;5099002;27;47578;-83
2022/02/21 12:34:35;;;;;;;36.23;5.30;;;9.40;99.90;;;;;;5117513;27;48831;-83
2022/02/21 12:37:06;;;;;;;37.07;5.90;;;9.60;99.90;;;;;;5113342;27;38750;-81
2022/02/21 12:39:34;;;;;;;36.00;6.67;;;9.50;99.90;;;;;;5097989;27;47094;-82
2022/02/21 12:42:01;;;;;;;42.13;7.83;;;9.30;99.90;;;;;;5109211;27;36870;-82
2022/02/21 12:44:27;;;;;;;39.20;6.50;;;8.80;99.90;;;;;;5101061;27;47366;-80
2022/02/21 12:47:00;;;;;;;36.23;5.33;;;8.60;99.90;;;;;;5121801;27;38959;-83
2022/02/21 12:49:33;;;;;;;27.23;5.47;;;8.70;99.90;;;;;;5136243;27;49419;-82
2022/02/21 12:52:13;;;;;;;34.43;5.27;;;8.80;99.90;;;;;;5125837;27;36329;-82